Terminal Aerodrome Forecast
Issued by NWS

Home | Current Version | Previous Version | Text Only | Print | Product List | Glossary On
Versions: 1 2 3 4 5 6 7 8 9 10 11 12
000
FTUS45 KVEF 010500
TAFEED
TAF
KEED 010539Z 0106/0206 20015KT P6SM BKN250
     FM011800 22015G24KT P6SM FEW100 BKN200
     FM020100 23011KT P6SM FEW100 BKN200=

USA.gov is the U.S. government's official web portal to all federal, state and local government web resources and services.